Time;durP1;ratioP1;P1;durP2;ratioP2;P2;SDS_P1;SDS_P2;PMS_P1;PMS_P2;Temp;Humidity;BMP_temperature;BMP_pressure;BME280_temperature;BME280_humidity;BME280_pressure;Samples;Min_cycle;Max_cycle;Signal;HPM_P1;HPM_P2
2022/07/16 00:03:01;;;;;;;;;;;;;;;30.14;26.54;101553.69;4409281;32;19953;-69
2022/07/16 00:05:26;;;;;;;;;;;;;;;30.35;26.21;101557.56;4407784;32;20034;-69
2022/07/16 00:07:54;;;;;;;;;;;;;;;30.19;26.45;101549.94;4407200;32;19997;-69
2022/07/16 00:10:19;;;;;;;;;;;;;;;30.32;26.37;101559.47;4409302;32;19957;-69
2022/07/16 00:12:45;;;;;;;;;;;;;;;30.35;26.34;101554.66;4408450;32;19988;-69
2022/07/16 00:15:11;;;;;;;;;;;;;;;30.37;26.18;101557.78;4408999;32;19985;-69
2022/07/16 00:17:37;;;;;;;;;;;;;;;30.35;26.28;101560.47;4408995;32;20623;-69
2022/07/16 00:20:04;;;;;;;;;;;;;;;30.42;26.21;101565.59;4408968;32;20089;-69
2022/07/16 00:22:29;;;;;;;;;;;;;;;30.34;26.24;101570.53;4408920;32;19961;-69
2022/07/16 00:24:54;;;;;;;;;;;;;;;29.93;26.80;101565.16;4407335;32;19973;-69
2022/07/16 00:27:20;;;;;;;;;;;;;;;30.21;26.42;101564.69;4407875;32;19977;-69
2022/07/16 00:29:46;;;;;;;;;;;;;;;30.14;26.60;101563.22;4408287;32;19953;-69
2022/07/16 00:32:11;;;;;;;;;;;;;;;30.11;26.71;101555.59;4408361;32;19949;-69
2022/07/16 00:34:37;;;;;;;;;;;;;;;30.25;26.57;101565.91;4411079;32;20413;-69
2022/07/16 00:37:02;;;;;;;;;;;;;;;30.22;26.68;101572.06;4410598;32;20042;-69
2022/07/16 00:39:28;;;;;;;;;;;;;;;30.35;26.53;101567.06;4407638;32;19950;-69
2022/07/16 00:41:53;;;;;;;;;;;;;;;30.39;26.47;101558.78;4410264;32;20377;-69
2022/07/16 00:44:19;;;;;;;;;;;;;;;30.30;26.64;101561.34;4408354;32;20702;-69
2022/07/16 00:46:46;;;;;;;;;;;;;;;30.13;26.81;101555.81;4407517;32;20005;-69
2022/07/16 00:49:12;;;;;;;;;;;;;;;30.30;26.64;101561.34;4409333;32;20382;-69
2022/07/16 00:51:42;;;;;;;;;;;;;;;30.28;26.71;101558.22;4410839;32;21497;-69
2022/07/16 00:54:08;;;;;;;;;;;;;;;30.21;26.70;101558.87;4405757;32;19958;-69
2022/07/16 00:56:34;;;;;;;;;;;;;;;30.30;26.57;101559.22;4410405;32;19987;-69
2022/07/16 00:58:59;;;;;;;;;;;;;;;30.22;26.76;101558.31;4407679;32;20009;-68
2022/07/16 01:01:25;;;;;;;;;;;;;;;30.05;27.02;101552.03;4408564;32;20070;-69
2022/07/16 01:03:51;;;;;;;;;;;;;;;29.70;27.54;101560.31;4408587;32;19985;-68
2022/07/16 01:06:16;;;;;;;;;;;;;;;29.77;27.57;101557.53;4409159;32;19965;-69
2022/07/16 01:08:43;;;;;;;;;;;;;;;29.78;27.53;101567.81;4408613;32;20370;-68
2022/07/16 01:11:10;;;;;;;;;;;;;;;29.75;27.56;101563.09;4409715;32;20001;-69
2022/07/16 01:13:37;;;;;;;;;;;;;;;30.02;27.29;101563.94;4411594;32;20000;-68
2022/07/16 01:16:03;;;;;;;;;;;;;;;29.97;27.38;101559.81;4406600;32;19985;-69
2022/07/16 01:18:30;;;;;;;;;;;;;;;29.95;27.37;101574.12;4407524;32;19971;-69
2022/07/16 01:20:55;;;;;;;;;;;;;;;29.92;27.25;101566.53;4410668;32;19991;-69
2022/07/16 01:23:22;;;;;;;;;;;;;;;30.05;27.22;101566.53;4408834;32;19962;-69
2022/07/16 01:25:48;;;;;;;;;;;;;;;29.88;27.31;101560.22;4408447;32;19972;-69
2022/07/16 01:28:13;;;;;;;;;;;;;;;29.92;27.27;101557.81;4411648;32;20048;-69
2022/07/16 01:30:39;;;;;;;;;;;;;;;29.91;27.38;101558.38;4410892;32;20336;-69
2022/07/16 01:33:21;;;;;;;;;;;;;;;29.82;27.49;101555.87;4409158;32;20008;-68
2022/07/16 01:35:49;;;;;;;;;;;;;;;29.66;27.67;101559.84;4407331;32;20377;-68
2022/07/16 01:38:15;;;;;;;;;;;;;;;29.74;27.42;101561.56;4408898;32;20468;-70
2022/07/16 01:40:40;;;;;;;;;;;;;;;29.63;27.71;101558.06;4410280;32;19993;-69
2022/07/16 01:43:15;;;;;;;;;;;;;;;29.61;27.71;101567.28;4410365;32;19991;-68
2022/07/16 01:45:41;;;;;;;;;;;;;;;29.56;27.78;101564.47;4407764;32;19976;-68
2022/07/16 01:48:06;;;;;;;;;;;;;;;29.53;27.83;101562.66;4409717;32;19957;-68
2022/07/16 01:50:32;;;;;;;;;;;;;;;29.50;27.85;101563.75;4407536;32;19958;-68
2022/07/16 01:52:58;;;;;;;;;;;;;;;29.50;27.85;101560.88;4408100;32;20099;-68
2022/07/16 01:55:23;;;;;;;;;;;;;;;29.43;27.96;101570.22;4408104;32;20025;-69
2022/07/16 01:57:49;;;;;;;;;;;;;;;29.61;27.62;101578.09;4407706;32;19962;-68
2022/07/16 02:00:14;;;;;;;;;;;;;;;29.75;27.49;101573.94;4408673;32;20441;-68
2022/07/16 02:02:40;;;;;;;;;;;;;;;29.53;27.82;101575.06;4408762;32;20438;-68
2022/07/16 02:05:05;;;;;;;;;;;;;;;29.49;28.00;101570.91;4408348;32;19995;-67
2022/07/16 02:07:31;;;;;;;;;;;;;;;29.54;27.91;101578.75;4409255;32;20377;-68
2022/07/16 02:09:57;;;;;;;;;;;;;;;29.57;27.90;101569.72;4409514;32;19966;-67
2022/07/16 02:12:22;;;;;;;;;;;;;;;29.31;28.19;101568.81;4410964;32;19995;-68
2022/07/16 02:14:48;;;;;;;;;;;;;;;29.15;28.53;101576.44;4410186;32;19995;-67
2022/07/16 02:17:13;;;;;;;;;;;;;;;29.12;28.60;101579.63;4410481;32;20013;-68
2022/07/16 02:19:38;;;;;;;;;;;;;;;29.10;28.74;101570.69;4410035;32;19997;-68
2022/07/16 02:22:06;;;;;;;;;;;;;;;28.92;28.73;101575.94;4410647;32;19964;-67
2022/07/16 02:24:32;;;;;;;;;;;;;;;28.90;28.98;101584.38;4413145;32;19979;-67
2022/07/16 02:26:58;;;;;;;;;;;;;;;29.05;28.79;101583.19;4410970;32;20310;-68
2022/07/16 02:29:24;;;;;;;;;;;;;;;29.08;28.55;101585.75;4411452;32;20485;-68
2022/07/16 02:31:49;;;;;;;;;;;;;;;29.13;28.66;101584.88;4410451;32;20400;-68
2022/07/16 02:34:16;;;;;;;;;;;;;;;29.18;28.55;101589.84;4409168;32;19950;-68
2022/07/16 02:36:41;;;;;;;;;;;;;;;29.11;28.62;101584.66;4409906;32;20923;-68
2022/07/16 02:39:07;;;;;;;;;;;;;;;28.83;29.18;101584.22;4408806;32;19993;-68
2022/07/16 02:41:32;;;;;;;;;;;;;;;28.83;28.96;101585.00;4410754;32;20025;-68
2022/07/16 02:43:58;;;;;;;;;;;;;;;28.74;29.07;101585.38;4410432;32;20102;-68
2022/07/16 02:46:23;;;;;;;;;;;;;;;28.81;29.16;101584.75;4409396;32;20182;-68
2022/07/16 02:48:48;;;;;;;;;;;;;;;28.75;29.16;101575.34;4411248;32;20355;-68
2022/07/16 02:51:14;;;;;;;;;;;;;;;28.55;29.42;101580.88;4411243;32;20414;-68
2022/07/16 02:53:40;;;;;;;;;;;;;;;28.63;29.29;101584.75;4409724;32;20319;-68
2022/07/16 02:56:06;;;;;;;;;;;;;;;28.67;29.28;101579.41;4409281;32;20089;-68
2022/07/16 02:58:32;;;;;;;;;;;;;;;28.55;29.39;101575.09;4410556;32;20005;-68
2022/07/16 03:00:57;;;;;;;;;;;;;;;28.59;29.42;101585.03;4408836;32;19961;-68
2022/07/16 03:03:22;;;;;;;;;;;;;;;28.55;29.38;101584.56;4408982;32;20027;-68
2022/07/16 03:05:48;;;;;;;;;;;;;;;28.53;29.40;101590.09;4400834;32;19965;-68
2022/07/16 03:08:13;;;;;;;;;;;;;;;28.51;29.48;101584.09;4408678;32;20048;-68
2022/07/16 03:10:39;;;;;;;;;;;;;;;28.44;29.70;101586.78;4408821;32;19988;-68
2022/07/16 03:13:05;;;;;;;;;;;;;;;28.24;29.86;101587.25;4409740;32;19997;-68
2022/07/16 03:15:30;;;;;;;;;;;;;;;28.28;29.80;101585.63;4409762;32;19991;-68
2022/07/16 03:17:56;;;;;;;;;;;;;;;28.30;29.71;101585.09;4409685;32;20001;-68
2022/07/16 03:20:23;;;;;;;;;;;;;;;28.37;29.71;101590.25;4410469;32;21109;-68
2022/07/16 03:22:49;;;;;;;;;;;;;;;28.34;29.60;101583.44;4409111;32;19993;-68
2022/07/16 03:25:15;;;;;;;;;;;;;;;28.32;29.65;101594.78;4395489;32;19984;-68
2022/07/16 03:27:41;;;;;;;;;;;;;;;28.21;29.79;101594.12;4412823;32;19965;-68
2022/07/16 03:30:07;;;;;;;;;;;;;;;28.09;29.74;101586.88;4408508;32;20249;-68
2022/07/16 03:32:32;;;;;;;;;;;;;;;28.03;30.01;101589.81;4408617;32;20216;-68
2022/07/16 03:34:58;;;;;;;;;;;;;;;28.08;29.99;101580.31;4411132;32;19966;-68
2022/07/16 03:37:23;;;;;;;;;;;;;;;28.14;29.90;101580.25;4412155;32;19957;-68
2022/07/16 03:39:49;;;;;;;;;;;;;;;27.91;30.49;101573.09;4409647;32;19962;-68
2022/07/16 03:42:14;;;;;;;;;;;;;;;28.14;30.05;101577.34;4411812;32;20280;-68
2022/07/16 03:44:40;;;;;;;;;;;;;;;28.30;29.77;101570.59;4409622;32;19997;-68
2022/07/16 03:47:06;;;;;;;;;;;;;;;28.25;29.81;101562.75;4409422;32;20212;-68
2022/07/16 03:49:31;;;;;;;;;;;;;;;28.28;29.74;101555.87;4406553;32;19946;-68
2022/07/16 03:51:56;;;;;;;;;;;;;;;28.12;30.13;101560.53;4409428;32;20308;-68
2022/07/16 03:54:22;;;;;;;;;;;;;;;28.27;29.92;101560.09;4409739;32;20008;-69
2022/07/16 03:56:47;;;;;;;;;;;;;;;28.27;29.81;101563.00;4409763;32;20001;-67
2022/07/16 03:59:13;;;;;;;;;;;;;;;28.23;29.99;101571.22;4406662;32;19997;-67
2022/07/16 04:01:39;;;;;;;;;;;;;;;28.43;29.66;101571.50;4409675;32;20013;-67
2022/07/16 04:04:04;;;;;;;;;;;;;;;28.40;29.77;101571.81;4409386;32;19949;-67
2022/07/16 04:06:29;;;;;;;;;;;;;;;28.55;29.57;101572.19;4412178;32;19958;-67
2022/07/16 04:08:55;;;;;;;;;;;;;;;28.50;29.57;101570.16;4405983;32;20003;-68
2022/07/16 04:11:20;;;;;;;;;;;;;;;28.26;29.84;101575.91;4410894;32;19994;-68
2022/07/16 04:13:46;;;;;;;;;;;;;;;28.34;29.84;101579.75;4411101;32;19973;-67
2022/07/16 04:16:12;;;;;;;;;;;;;;;28.30;29.85;101582.97;4408670;32;19965;-67
2022/07/16 04:18:38;;;;;;;;;;;;;;;28.45;29.55;101583.38;4408228;32;19992;-67
2022/07/16 04:21:04;;;;;;;;;;;;;;;28.49;29.58;101569.37;4410864;32;20032;-68
2022/07/16 04:23:30;;;;;;;;;;;;;;;28.21;29.92;101570.97;4413783;32;19961;-68
2022/07/16 04:25:55;;;;;;;;;;;;;;;28.60;29.51;101563.41;4397715;32;20463;-68
2022/07/16 04:28:21;;;;;;;;;;;;;;;28.51;29.64;101566.72;4409250;32;19954;-67
2022/07/16 04:30:47;;;;;;;;;;;;;;;28.57;29.47;101563.75;4409061;32;19950;-68
2022/07/16 04:33:12;;;;;;;;;;;;;;;28.73;29.40;101559.84;4407349;32;20412;-68
2022/07/16 04:35:38;;;;;;;;;;;;;;;28.61;29.57;101558.41;4409019;32;20159;-68
2022/07/16 04:38:04;;;;;;;;;;;;;;;28.70;29.38;101555.94;4410015;32;20358;-68
2022/07/16 04:40:29;;;;;;;;;;;;;;;28.69;29.50;101556.50;4408862;32;19972;-68
2022/07/16 04:42:55;;;;;;;;;;;;;;;28.77;29.38;101566.13;4408871;32;20012;-68
2022/07/16 04:45:21;;;;;;;;;;;;;;;28.77;29.29;101561.09;4407926;32;19993;-68
2022/07/16 04:47:47;;;;;;;;;;;;;;;28.91;29.16;101571.47;4409655;32;20009;-67
2022/07/16 04:50:12;;;;;;;;;;;;;;;29.03;28.98;101575.75;4408215;32;20677;-67
2022/07/16 04:52:37;;;;;;;;;;;;;;;29.13;28.89;101579.09;4409495;32;20385;-67
2022/07/16 04:55:04;;;;;;;;;;;;;;;29.03;29.02;101581.56;4408950;32;20383;-67
2022/07/16 04:57:29;;;;;;;;;;;;;;;28.91;29.16;101580.16;4409748;32;19958;-68
2022/07/16 04:59:55;;;;;;;;;;;;;;;29.01;28.97;101587.13;4408136;32;20425;-67
2022/07/16 05:05:06;;;;;;;;;;;;;;;29.21;28.78;101577.16;4406960;32;20009;-67
2022/07/16 05:07:31;;;;;;;;;;;;;;;29.30;28.62;101581.75;4408030;32;20379;-68
2022/07/16 05:09:57;;;;;;;;;;;;;;;29.38;28.50;101585.56;4411174;32;20003;-67
2022/07/16 05:12:23;;;;;;;;;;;;;;;29.43;28.49;101578.91;4408725;32;19996;-68
2022/07/16 05:14:48;;;;;;;;;;;;;;;29.43;28.43;101588.41;4407457;32;20314;-68
2022/07/16 05:17:14;;;;;;;;;;;;;;;29.54;28.32;101582.41;4410260;32;20021;-67
2022/07/16 05:19:40;;;;;;;;;;;;;;;29.71;28.15;101590.88;4408452;32;19993;-67
2022/07/16 05:22:06;;;;;;;;;;;;;;;29.70;28.07;101589.31;4408564;32;19964;-67
2022/07/16 05:24:32;;;;;;;;;;;;;;;29.85;28.00;101601.22;4408517;32;20369;-67
2022/07/16 05:26:58;;;;;;;;;;;;;;;29.86;27.91;101602.78;4409725;32;20005;-68
2022/07/16 05:29:24;;;;;;;;;;;;;;;29.74;27.99;101598.47;4408303;32;20406;-67
2022/07/16 05:31:49;;;;;;;;;;;;;;;29.81;27.99;101600.72;4411687;32;19991;-67
2022/07/16 05:34:15;;;;;;;;;;;;;;;29.99;27.88;101602.81;4408603;32;20186;-67
2022/07/16 05:36:40;;;;;;;;;;;;;;;29.79;28.00;101604.19;4409675;32;19953;-69
2022/07/16 05:39:06;;;;;;;;;;;;;;;30.11;27.70;101604.97;4408579;32;20012;-67
2022/07/16 05:41:31;;;;;;;;;;;;;;;30.07;27.83;101607.38;4410015;32;20028;-67
2022/07/16 05:43:57;;;;;;;;;;;;;;;30.15;27.46;101613.31;4412238;32;20351;-67
2022/07/16 05:46:23;;;;;;;;;;;;;;;30.10;27.86;101602.63;4412433;32;19953;-67
2022/07/16 05:48:48;;;;;;;;;;;;;;;30.27;27.64;101603.09;4410117;32;20092;-67
2022/07/16 05:51:14;;;;;;;;;;;;;;;30.27;27.43;101606.81;4412335;32;20029;-67
2022/07/16 05:53:39;;;;;;;;;;;;;;;30.39;27.49;101611.06;4411841;32;20034;-69
2022/07/16 05:56:05;;;;;;;;;;;;;;;30.33;27.38;101604.59;4409129;32;19949;-67
2022/07/16 05:58:30;;;;;;;;;;;;;;;30.62;27.24;101608.53;4411789;32;19962;-69
2022/07/16 06:00:56;;;;;;;;;;;;;;;30.45;27.24;101610.94;4412674;32;19972;-67
2022/07/16 06:03:22;;;;;;;;;;;;;;;30.48;27.19;101610.63;4413253;32;20278;-67
2022/07/16 06:05:47;;;;;;;;;;;;;;;30.59;27.20;101609.63;4410006;32;19962;-67
2022/07/16 06:08:12;;;;;;;;;;;;;;;30.77;26.90;101617.50;4412369;32;20027;-67
2022/07/16 06:10:38;;;;;;;;;;;;;;;31.04;26.63;101618.25;4412554;32;21242;-67
2022/07/16 06:13:04;;;;;;;;;;;;;;;30.83;26.87;101621.03;4412508;32;19957;-67
2022/07/16 06:15:29;;;;;;;;;;;;;;;31.01;26.49;101625.94;4411443;32;20005;-67
2022/07/16 06:17:55;;;;;;;;;;;;;;;31.03;26.59;101628.28;4412296;32;20383;-68
2022/07/16 06:20:20;;;;;;;;;;;;;;;31.22;26.20;101635.53;4409914;32;19974;-68
2022/07/16 06:22:46;;;;;;;;;;;;;;;31.35;26.05;101623.87;4411623;32;19958;-68
2022/07/16 06:25:12;;;;;;;;;;;;;;;31.31;25.96;101637.22;4411734;32;19954;-68
2022/07/16 06:27:42;;;;;;;;;;;;;;;31.33;26.07;101631.62;4412054;32;20324;-67
2022/07/16 06:30:08;;;;;;;;;;;;;;;31.53;26.03;101634.56;4410390;32;20350;-67
2022/07/16 06:32:33;;;;;;;;;;;;;;;31.64;25.66;101639.34;4413210;32;20013;-68
2022/07/16 06:34:59;;;;;;;;;;;;;;;31.70;25.55;101652.44;4411303;32;19950;-67
2022/07/16 06:37:24;;;;;;;;;;;;;;;31.81;25.48;101640.53;4410775;32;20221;-67
2022/07/16 06:39:50;;;;;;;;;;;;;;;31.88;25.43;101636.94;4409634;32;19954;-68
2022/07/16 06:42:15;;;;;;;;;;;;;;;31.85;25.56;101637.28;4411491;32;19954;-68
2022/07/16 06:44:41;;;;;;;;;;;;;;;31.84;25.28;101635.72;4410623;32;19958;-68
2022/07/16 06:47:07;;;;;;;;;;;;;;;31.93;25.27;101643.94;4411943;32;19994;-68
2022/07/16 06:49:32;;;;;;;;;;;;;;;32.15;24.96;101646.31;4412405;32;19989;-68
2022/07/16 06:51:57;;;;;;;;;;;;;;;32.14;25.08;101648.44;4411197;32;20031;-68
2022/07/16 06:54:23;;;;;;;;;;;;;;;32.30;24.89;101650.13;4410133;32;20001;-68
2022/07/16 06:56:48;;;;;;;;;;;;;;;32.27;24.76;101648.34;4408700;32;19953;-68
2022/07/16 06:59:14;;;;;;;;;;;;;;;32.54;24.67;101649.78;4409442;32;19962;-68
2022/07/16 07:01:39;;;;;;;;;;;;;;;32.61;24.49;101657.03;4410729;32;20030;-68
2022/07/16 07:04:05;;;;;;;;;;;;;;;32.67;24.54;101658.41;4411863;32;19954;-68
2022/07/16 07:06:30;;;;;;;;;;;;;;;32.66;24.60;101664.81;4412492;32;20379;-67
2022/07/16 07:08:55;;;;;;;;;;;;;;;32.53;24.45;101662.00;4411532;32;19991;-67
2022/07/16 07:11:21;;;;;;;;;;;;;;;32.47;24.52;101661.38;4410756;32;19953;-68
2022/07/16 07:13:46;;;;;;;;;;;;;;;32.70;24.42;101673.22;4410490;32;19951;-68
2022/07/16 07:16:12;;;;;;;;;;;;;;;32.63;24.65;101663.84;4407837;32;20062;-68
2022/07/16 07:18:38;;;;;;;;;;;;;;;32.72;24.50;101670.47;4411095;32;20229;-68
2022/07/16 07:21:04;;;;;;;;;;;;;;;32.81;24.42;101667.84;4411351;32;19994;-68
2022/07/16 07:23:29;;;;;;;;;;;;;;;32.75;24.51;101666.44;4408749;32;20187;-68
2022/07/16 07:25:55;;;;;;;;;;;;;;;32.93;24.43;101668.31;4410862;32;20004;-68
2022/07/16 07:28:21;;;;;;;;;;;;;;;32.97;24.25;101666.59;4410645;32;20354;-68
2022/07/16 07:30:46;;;;;;;;;;;;;;;33.15;24.00;101670.59;4411147;32;20020;-67
2022/07/16 07:33:11;;;;;;;;;;;;;;;33.01;24.39;101666.25;4400350;32;19954;-69
2022/07/16 07:35:37;;;;;;;;;;;;;;;33.38;23.66;101662.75;4412130;32;19954;-69
2022/07/16 07:38:03;;;;;;;;;;;;;;;33.50;23.57;101663.97;4409515;32;20379;-68
2022/07/16 07:40:28;;;;;;;;;;;;;;;33.55;23.52;101678.38;4412078;32;19949;-67
2022/07/16 07:42:54;;;;;;;;;;;;;;;33.60;23.41;101679.56;4397450;32;19985;-68
2022/07/16 07:45:20;;;;;;;;;;;;;;;33.55;23.28;101680.53;4408434;32;20394;-68
2022/07/16 07:47:45;;;;;;;;;;;;;;;33.73;23.19;101677.28;4410576;32;20324;-69
2022/07/16 07:50:11;;;;;;;;;;;;;;;33.53;23.34;101684.03;4409999;32;20402;-68
2022/07/16 07:52:37;;;;;;;;;;;;;;;33.38;23.60;101677.34;4411808;32;19953;-69
2022/07/16 07:55:03;;;;;;;;;;;;;;;33.47;23.44;101682.66;4408163;32;20403;-69
2022/07/16 07:57:28;;;;;;;;;;;;;;;33.65;23.17;101682.31;4408245;32;19957;-68
2022/07/16 07:59:54;;;;;;;;;;;;;;;33.64;23.21;101688.72;4410444;32;20005;-68
2022/07/16 08:02:20;;;;;;;;;;;;;;;33.87;23.02;101686.69;4408564;32;19997;-68
2022/07/16 08:04:46;;;;;;;;;;;;;;;33.97;22.94;101685.56;4410084;32;19946;-68
2022/07/16 08:07:11;;;;;;;;;;;;;;;34.31;22.33;101691.03;4409904;32;19962;-68
2022/07/16 08:09:37;;;;;;;;;;;;;;;34.34;22.33;101689.88;4409796;32;19991;-68
2022/07/16 08:12:03;;;;;;;;;;;;;;;34.23;22.47;101691.03;4411360;32;19960;-68
2022/07/16 08:14:28;;;;;;;;;;;;;;;34.03;22.61;101689.06;4411228;32;19964;-68
2022/07/16 08:16:55;;;;;;;;;;;;;;;34.22;22.45;101688.69;4412865;32;20000;-68
2022/07/16 08:19:21;;;;;;;;;;;;;;;34.49;22.20;101689.91;4412191;32;20096;-68
2022/07/16 08:21:47;;;;;;;;;;;;;;;34.42;22.15;101678.22;4409985;32;19996;-68
2022/07/16 08:26:58;;;;;;;;;;;;;;;34.58;21.92;101695.19;4409627;32;19953;-68
2022/07/16 08:29:24;;;;;;;;;;;;;;;34.44;22.16;101687.19;4408870;32;20024;-69
2022/07/16 08:31:49;;;;;;;;;;;;;;;34.87;21.19;101687.75;4409084;32;20425;-69
2022/07/16 08:34:15;;;;;;;;;;;;;;;34.35;21.99;101682.66;4409396;32;20038;-69
2022/07/16 08:36:40;;;;;;;;;;;;;;;34.66;21.58;101680.56;4410543;32;19966;-69
2022/07/16 08:39:06;;;;;;;;;;;;;;;35.27;21.02;101679.84;4410429;32;20005;-69
2022/07/16 08:41:32;;;;;;;;;;;;;;;35.23;21.16;101687.47;4412054;32;20023;-69
2022/07/16 08:43:57;;;;;;;;;;;;;;;34.87;21.51;101678.97;4411897;32;20025;-69
2022/07/16 08:46:26;;;;;;;;;;;;;;;35.04;21.48;101685.00;4397899;32;20568;-69
2022/07/16 08:48:52;;;;;;;;;;;;;;;35.20;21.41;101686.50;4408684;32;20000;-69
2022/07/16 08:51:20;;;;;;;;;;;;;;;35.06;21.20;101684.41;4407923;32;20299;-69
2022/07/16 08:53:45;;;;;;;;;;;;;;;35.52;20.74;101692.44;4410311;32;19984;-69
2022/07/16 08:56:12;;;;;;;;;;;;;;;35.71;20.67;101694.91;4409118;32;19960;-69
2022/07/16 08:58:38;;;;;;;;;;;;;;;35.43;20.96;101695.22;4410017;32;20033;-69
2022/07/16 09:01:04;;;;;;;;;;;;;;;35.27;21.23;101691.53;4409085;32;19986;-69
2022/07/16 09:03:29;;;;;;;;;;;;;;;35.54;20.95;101691.84;4410118;32;19991;-69
2022/07/16 09:05:55;;;;;;;;;;;;;;;35.33;20.34;101689.22;4410752;32;20003;-69
2022/07/16 09:08:21;;;;;;;;;;;;;;;35.15;20.37;101699.19;4407595;32;19997;-69
2022/07/16 09:10:47;;;;;;;;;;;;;;;34.73;20.79;101701.00;4409377;32;19960;-69
2022/07/16 09:13:12;;;;;;;;;;;;;;;34.70;20.92;101704.31;4411649;32;19998;-69
2022/07/16 09:15:39;;;;;;;;;;;;;;;35.09;20.69;101701.53;4410378;32;20331;-69
2022/07/16 09:20:50;;;;;;;;;;;;;;;35.96;19.93;101696.53;3955445;32;15777409;-69
2022/07/16 09:23:21;;;;;;;;;;;;;;;35.96;19.93;101696.53;4428850;32;20016;-68
2022/07/16 09:25:49;;;;;;;;;;;;;;;35.40;20.27;101705.97;4430051;32;20024;-68
2022/07/16 09:28:14;;;;;;;;;;;;;;;35.78;19.93;101702.88;4431645;32;19985;-69
2022/07/16 09:30:40;;;;;;;;;;;;;;;36.22;19.61;101704.75;4429456;32;20044;-69
2022/07/16 09:33:14;;;;;;;;;;;;;;;36.65;19.52;101700.50;4433042;32;20026;-68
2022/07/16 09:35:41;;;;;;;;;;;;;;;36.79;19.34;101698.06;4429032;32;20029;-68
2022/07/16 09:38:09;;;;;;;;;;;;;;;37.00;19.16;101701.37;4430531;32;19997;-68
2022/07/16 09:46:03;;;;;;;;;;;;;;;37.76;18.60;101702.81;3949483;32;15727540;-69
2022/07/16 09:48:29;;;;;;;;;;;;;;;37.76;18.60;101702.81;4431405;32;19956;-69
2022/07/16 09:50:56;;;;;;;;;;;;;;;37.40;18.42;101693.88;4435071;32;19982;-69
2022/07/16 09:53:22;;;;;;;;;;;;;;;36.95;18.87;101705.34;4433064;32;20339;-69
2022/07/16 09:55:56;;;;;;;;;;;;;;;36.92;18.91;101709.47;4434660;32;19966;-69
2022/07/16 09:58:22;;;;;;;;;;;;;;;36.87;18.97;101701.72;4436276;32;20367;-69
2022/07/16 10:00:48;;;;;;;;;;;;;;;37.02;19.12;101701.56;4435678;32;20051;-69
2022/07/16 10:03:14;;;;;;;;;;;;;;;36.96;19.30;101706.91;4432694;32;20386;-69
2022/07/16 10:05:40;;;;;;;;;;;;;;;36.84;19.37;101705.84;4435222;32;19977;-69
2022/07/16 10:08:06;;;;;;;;;;;;;;;37.51;18.70;101705.09;4433937;32;20383;-69
2022/07/16 10:10:31;;;;;;;;;;;;;;;37.43;18.72;101706.59;4436907;32;19996;-69
2022/07/16 10:12:57;;;;;;;;;;;;;;;38.25;17.91;101706.84;4433795;32;19996;-69
2022/07/16 10:15:23;;;;;;;;;;;;;;;38.58;17.46;101693.34;4434623;32;20004;-69
2022/07/16 10:17:49;;;;;;;;;;;;;;;38.73;17.70;101693.09;4432272;32;20063;-69
2022/07/16 10:20:18;;;;;;;;;;;;;;;38.49;17.67;101697.03;4434925;32;20005;-69
2022/07/16 10:22:45;;;;;;;;;;;;;;;38.47;17.47;101693.94;4433539;32;20274;-69
2022/07/16 10:25:19;;;;;;;;;;;;;;;39.17;16.80;101691.47;4435120;32;20004;-69
2022/07/16 10:27:45;;;;;;;;;;;;;;;39.40;16.94;101696.94;4432688;32;19985;-69
2022/07/16 10:30:13;;;;;;;;;;;;;;;40.02;16.31;101697.91;4430645;32;20002;-69
2022/07/16 10:32:59;;;;;;;;;;;;;;;39.66;16.70;101699.69;4431366;32;20446;-69
2022/07/16 10:35:27;;;;;;;;;;;;;;;40.17;16.23;101691.66;4432926;32;21058;-69
2022/07/16 10:38:03;;;;;;;;;;;;;;;40.04;15.83;101701.81;4431026;32;19969;-68
2022/07/16 10:40:29;;;;;;;;;;;;;;;40.09;15.66;101694.78;4434129;32;19979;-69
2022/07/16 10:46:04;;;;;;;;;;;;;;;41.03;15.31;101703.81;3950821;32;15731611;-69
2022/07/16 10:48:49;;;;;;;;;;;;;;;41.03;15.31;101703.81;4427074;32;20070;-69
2022/07/16 10:51:16;;;;;;;;;;;;;;;40.62;15.16;101693.50;4430175;32;19987;-69
2022/07/16 10:59:10;;;;;;;;;;;;;;;42.31;14.09;101700.75;3951008;32;15721670;-69
2022/07/16 11:01:37;;;;;;;;;;;;;;;42.31;14.09;101700.75;4428877;32;19991;-69
2022/07/16 11:04:03;;;;;;;;;;;;;;;41.90;14.13;101699.50;4427039;32;19964;-69
2022/07/16 11:06:29;;;;;;;;;;;;;;;42.35;13.86;101700.22;4424466;32;20046;-69
2022/07/16 11:08:55;;;;;;;;;;;;;;;42.71;13.62;101703.34;4425393;32;19957;-69
2022/07/16 11:11:21;;;;;;;;;;;;;;;43.01;13.29;101705.19;4426557;32;20001;-69
2022/07/16 11:13:47;;;;;;;;;;;;;;;42.93;13.51;101707.69;4429981;32;19999;-69
2022/07/16 11:16:14;;;;;;;;;;;;;;;42.87;13.59;101709.50;4427544;32;21162;-69
2022/07/16 11:18:39;;;;;;;;;;;;;;;42.86;13.67;101711.69;4413481;32;20009;-69
2022/07/16 11:21:05;;;;;;;;;;;;;;;43.01;13.68;101713.34;4427265;32;19993;-69
2022/07/16 11:23:45;;;;;;;;;;;;;;;42.93;13.67;101707.69;4427728;32;20386;-69
2022/07/16 11:26:11;;;;;;;;;;;;;;;43.13;13.51;101694.13;4426642;32;20437;-69
2022/07/16 11:28:48;;;;;;;;;;;;;;;43.65;13.14;101698.72;4427714;32;19961;-69
2022/07/16 11:31:14;;;;;;;;;;;;;;;43.88;13.03;101704.53;4428983;32;19988;-69
2022/07/16 11:33:41;;;;;;;;;;;;;;;44.27;12.61;101703.12;4425857;32;20320;-68
2022/07/16 11:36:08;;;;;;;;;;;;;;;43.92;12.87;101710.72;4428707;32;20315;-68
2022/07/16 11:38:34;;;;;;;;;;;;;;;44.67;12.25;101702.41;4425542;32;20324;-68
2022/07/16 11:40:59;;;;;;;;;;;;;;;44.67;12.11;101707.59;4425005;32;20010;-68
2022/07/16 11:43:27;;;;;;;;;;;;;;;45.17;11.69;101700.59;4427972;32;20466;-68
2022/07/16 11:45:52;;;;;;;;;;;;;;;45.19;11.58;101703.69;4427699;32;20043;-69
2022/07/16 11:48:19;;;;;;;;;;;;;;;45.40;11.56;101695.19;4427190;32;20334;-68
2022/07/16 11:50:46;;;;;;;;;;;;;;;45.66;11.40;101702.44;4425118;32;19972;-68
2022/07/16 11:53:12;;;;;;;;;;;;;;;46.22;11.11;101711.22;4424524;32;19993;-70
2022/07/16 11:55:45;;;;;;;;;;;;;;;46.56;10.77;101709.16;4413276;32;20299;-68
2022/07/16 11:58:11;;;;;;;;;;;;;;;46.86;10.36;101713.53;4427492;32;20357;-69
2022/07/16 12:00:44;;;;;;;;;;;;;;;46.67;10.46;101704.41;4411208;32;19965;-68
2022/07/16 12:03:11;;;;;;;;;;;;;;;46.97;10.55;101702.81;4424635;32;20479;-69
2022/07/16 12:05:36;;;;;;;;;;;;;;;46.93;10.68;101703.44;4426531;32;19969;-69
2022/07/16 12:08:03;;;;;;;;;;;;;;;46.98;10.54;101701.37;4424313;32;20000;-69
2022/07/16 12:10:29;;;;;;;;;;;;;;;47.31;10.21;101701.37;4416697;32;19976;-69
2022/07/16 12:13:02;;;;;;;;;;;;;;;47.17;10.32;101706.72;4419475;32;19961;-69
2022/07/16 12:15:28;;;;;;;;;;;;;;;47.27;10.08;101702.00;4416150;32;20014;-69
2022/07/16 12:17:53;;;;;;;;;;;;;;;47.39;10.08;101692.78;4416157;32;19996;-69
2022/07/16 12:20:24;;;;;;;;;;;;;;;47.11;10.34;101697.50;4414881;32;20282;-69
2022/07/16 12:23:06;;;;;;;;;;;;;;;47.66;10.09;101692.47;4415043;32;19989;-69
2022/07/16 12:30:52;;;;;;;;;;;;;;;45.95;11.25;101683.81;3952712;32;15724401;-69
2022/07/16 12:38:37;;;;;;;;;;;;;;;47.08;10.39;101684.69;3951884;32;15726083;-69
2022/07/16 12:41:04;;;;;;;;;;;;;;;47.08;10.39;101684.69;4435073;32;20242;-68
2022/07/16 12:43:30;;;;;;;;;;;;;;;46.81;10.39;101684.97;4430165;32;20191;-69
2022/07/16 12:45:55;;;;;;;;;;;;;;;47.17;10.27;101676.91;4431478;32;19966;-69
2022/07/16 12:48:21;;;;;;;;;;;;;;;46.66;10.11;101685.00;4432749;32;20027;-68
2022/07/16 12:50:46;;;;;;;;;;;;;;;46.06;10.47;101677.69;4433323;32;19949;-69
2022/07/16 12:53:11;;;;;;;;;;;;;;;45.34;10.82;101677.00;4431314;32;19973;-68
2022/07/16 12:58:53;;;;;;;;;;;;;;;46.21;10.22;101673.97;4429110;32;20014;-68
2022/07/16 13:01:08;;;;;;;;;;;;;;;46.59;10.03;101671.28;4428956;32;19973;-69
2022/07/16 13:03:33;;;;;;;;;;;;;;;47.14;9.66;101666.31;4431783;32;19988;-69
2022/07/16 13:05:59;;;;;;;;;;;;;;;47.42;9.57;101662.34;4430041;32;20012;-69
2022/07/16 13:08:24;;;;;;;;;;;;;;;48.40;9.04;101652.91;4434072;32;20308;-69